Aerodrome Latest Weathers

# Airport/Station Observation Time (Local Time) Wind Visibility (km) Weather Temp. (°C) Dewdrop (°C) Air Pressure (hPa)
Direction (from) Speed (km/h)
1 Maimun Saleh - Sabang 2020-06-01 07:00:00 WIB Tenang 8.0 Berawan 26 25 1012
2 Sultan Iskandar Muda - Banda Aceh 2020-06-01 07:00:00 WIB Tenggara 7.4 >=10 Cerah - berawan 25 23 1011
3 Cut Nyak Dien Nagan Raya - Meulaboh, NAD 2020-06-01 07:00:00 WIB Utara 3.7 7.0 Cerah - berawan 25 24 1011
4 Malikus Saleh - Lhokseumawe 2020-06-01 07:00:00 WIB Selatan 5.6 9.0 Cerah - berawan 24 23 1010
5 Binaka - Gunung Sitoli 2020-06-01 07:00:00 WIB Selatan 7.4 6.0 Cerah - berawan 24 23 1011
6 Kualanamu International Airport - Deli Serdang 2020-06-01 07:00:00 WIB Tenang 1.5 Halimun 26 26 1011
7 Dr. Ferdinand Lumban Tobing - Pinangsori (Sibolga) 2020-06-01 07:00:00 WIB Tenggara 5.6 >=10 Berawan 23 23 1012
8 Silangit - Tapanuli Utara 2020-06-01 06:30:00 WIB Barat Daya 5.6 3.0 Hujan ringan 17 17 1021
9 Aek Godang - Padang Sidempuan 2020-06-01 07:00:00 WIB Utara 1.9 8.0 Berawan 25 22 1013
10 Minangkabau International Airport - Padang 2020-06-01 07:00:00 WIB Utara 3.7 >=10 Hujan ringan 24 24 1012
11 Sultan Syarif Kasim II - Pekanbaru 2020-06-01 07:00:00 WIB Tenang 7.0 Guntur dan hujan ringan 24 22 1012
12 Depati Parbo - Kerinci 2020-06-01 07:00:00 WIB Barat Laut 5.6 6.0 Berawan 21 20 1016
13 Japura - Rengat 2020-06-01 07:00:00 WIB Barat 9.3 6.0 Berawan 24 23 1012
14 Fatmawati Sukarno - Bengkulu 2020-06-01 07:00:00 WIB Timur 3.7 8.0 Cerah - berawan 25 24 1011
15 Raja Haji Abdullah - Tanjung Balai Karimun 2020-06-01 07:00:00 WIB Selatan 13.0 8.0 Berawan 27 25 1011
16 Sultan Thaha - Jambi 2020-06-01 07:00:00 WIB Timur Laut 3.7 7.0 Cerah - berawan 24 24 1011
17 Hang Nadim - Batam 2020-06-01 07:00:00 WIB Selatan 18.5 >=10 Berawan 27 25 1014
18 Raja Haji Fisabilillah - Tanjung Pinang 2020-06-01 07:00:00 WIB Selatan 11.1 >=10 Berawan 26 25 1013
19 Sultan Mahmud Badaruddin II - Palembang 2020-06-01 07:00:00 WIB Barat 3.7 8.0 Cerah - berawan 25 24 1012
20 Radin Inten II - Lampung 2020-06-01 07:00:00 WIB Barat Daya 3.7 6.0 Cerah - berawan 25 24 1012
21 Depati Amir - Pangkal Pinang 2020-06-01 07:00:00 WIB Tenggara 9.3 7.0 Hujan ringan 27 25 1012
22 Budiarto - Curug 2020-06-01 07:00:00 WIB Selatan 1.9 1.4 Halimun 24 24 1012
23 Soekarno Hatta - Jakarta 2020-06-01 07:00:00 WIB Selatan 9.3 5.0 Halimun 26 23 1012
24 Halim Perdana Kusuma - Jakarta 2020-06-01 07:00:00 WIB Tenang 4.0 Udara kabur 25 24 1012
25 Husein Sastranegara - Bandung 2020-06-01 07:00:00 WIB Tenggara 3.7 5.0 Udara kabur 20 19 1017
26 H.A.S. Hanandjoeddin - Tanjung Pandan 2020-06-01 06:00:00 WIB Tenggara 5.6 7.0 Berawan 24 24 1011
27 Kertajati 2020-06-01 07:00:00 WIB Tenggara 3.7 >=10 Cerah - berawan 25 25 1012
28 Wiriadinata - Cibeureum, Tasikmalaya 2020-06-01 07:00:00 WIB Tenang 4.0 Udara kabur 23 23 1016
29 Ranai - Natuna 2020-06-01 07:00:00 WIB Barat Daya 11.1 >=10 Cerah - berawan 29 25 1011
30 Supadio - Pontianak 2020-06-01 07:00:00 WIB Tenang >=10 Cerah - berawan 25 24 1012
31 Rahadi Oesman - Ketapang 2020-06-01 06:30:00 WIB Variabel 3.7 8.0 Cerah - berawan 24 25 1012
32 Yogyakarta International Airport - Kulonprogo 2020-06-01 07:00:00 WIB Utara 7.4 9.0 Hujan tiba-tiba di sekitarnya 26 25 1013
33 Ahmad Yani - Semarang 2020-06-01 07:00:00 WIB Tenggara 3.7 9.0 Cerah 26 24 1013
34 Adi Sutjipto - Yogyakarta 2020-06-01 07:00:00 WIB Timur Laut 3.7 7.0 Berawan 25 24 1013
35 Adi Soemarmo - Surakarta 2020-06-01 07:00:00 WIB Tenang 5.0 Udara kabur 25 24 1014
36 Iswahjudi - Madiun 2020-06-01 07:00:00 WIB Barat Daya 3.7 4.0 Halimun 25 24 1014
37 Tebelian - Sintang 2020-06-01 07:00:00 WIB Tenang 4.0 Halimun 24 24 1012
38 Iskandar - Pangkalan Bun 2020-06-01 07:00:00 WIB Tenang 7.0 Berawan 25 24 1013
39 Nanga Pinoh 2020-06-01 07:00:00 WIB Timur Laut 3.7 2.0 Halimun 25 24 1012
40 Abdulrachman Saleh - Malang 2020-06-01 07:00:00 WIB Timur Laut 5.6 3.0 Halimun 22 21 1017
41 Juanda - Surabaya 2020-06-01 07:00:00 WIB Variabel 5.6 5.0 Halimun 26 26 1012
42 Pangsuma - Putussibau 2020-06-01 07:00:00 WIB Tenang >=10 Berawan 25 24 1014
43 Haji Asan - Sampit 2020-06-01 07:00:00 WIB Barat Laut 7.4 7.0 Berawan 26 25 1012
44 Noto Hadinegoro - Jember 2020-06-01 07:00:00 WIB Utara 5.6 1.0 Halimun 25 25 1015
45 Tjilik Riwut - Palangkaraya 2020-06-01 07:00:00 WIB Utara 3.7 8.0 Berawan 26 25 1014
46 Banyuwangi 2020-06-01 07:00:00 WIB Barat 7.4 9.0 Cerah - berawan 27 26 1014
47 Beringin - Muara Teweh 2020-06-01 07:00:00 WIB Barat Daya 3.7 5.0 Halimun 25 24 1012
48 Sanggu - Buntok 2020-06-01 07:00:00 WIB Barat Laut 3.7 8.0 Berawan 25 24 1013
49 H. Hasan Aroeboesman - Ende 2020-06-01 07:00:00 WIB Tenang 8.0 Berawan 28 24 1014
50 Syamsudin Noor - Banjarmasin 2020-06-01 08:00:00 WITA Timur Laut 1.9 >=10 Cerah - berawan 26 26 1011
51 I Gusti Ngurah Rai - Denpasar 2020-06-01 08:00:00 WITA Timur 18.5 >=10 Berawan 29 28 1013
52 Yuvai Semaring - Long Bawang 2020-06-01 08:00:00 WITA Tenang 4.0 Berawan 22 21 1019
53 Gusti Sjamsir Alam - Kota Baru 2020-06-01 08:00:00 WITA Tenang 7.0 Berawan 25 24 1011
54 Bandara Internasional Lombok - Praya 2020-06-01 08:00:00 WITA Timur 11.1 7.0 Berawan 27 26 1014
55 Sultan Aji Muhammad Sulaiman - Sepinggan 2020-06-01 08:00:00 WITA Barat 5.6 8.0 Berawan 25 25 1011
56 Aji Pangeran Tumenggung Pranoto - Samarinda 2020-06-01 08:00:00 WITA Variabel 3.7 4.0 Halimun 26 26 1013
57 Tanjung Harapan - Tanjung Selor 2020-06-01 08:00:00 WITA Barat Daya 14.8 8.0 Cerah - berawan 27 25 1012
58 Sultan Muhammad Kaharuddin - Sumbawa Besar 2020-06-01 08:00:00 WITA Selatan 9.3 >=10 Cerah - berawan 27 22 1012
59 Kalimarau - Tanjung Redeb 2020-06-01 08:00:00 WITA Barat 5.6 >=10 Berawan 25 25 1013
60 Juwata - Tarakan 2020-06-01 08:00:00 WITA Barat 7.4 >=10 Berawan 28 27 1012
61 Nunukan 2020-06-01 06:00:00 WITA Tenang 7.0 Berawan 26 25 1010
62 Sultan Muhammad Salahuddin - Bima 2020-06-01 08:00:00 WITA Tenang >=10 Cerah - berawan 25 23 1014
63 Tambolaka - Sumba Barat 2020-06-01 07:00:00 WITA Tenang >=10 Cerah - berawan 21 19 1014
64 Sultan Hasanuddin - Makassar 2020-06-01 08:00:00 WITA Barat Daya 3.7 >=10 Cerah - berawan 26 25 1012
65 Pongtiku - Tana Toraja 2020-06-01 07:00:00 WITA Tenang 0.8 Berkabut 20 20 1013
66 Komodo - Labuan Bajo 2020-06-01 08:00:00 WITA Selatan 5.6 >=10 Cerah - berawan 28 22 1014
67 Mutiara SIS Al-Jufri - Palu 2020-06-01 08:00:00 WITA Selatan 7.4 >=10 Cerah - berawan 28 22 1013
68 Umbu Mehang Kunda - Waingapu 2020-06-01 08:00:00 WITA Barat Daya 7.4 >=10 Cerah - berawan 24 21 1015
69 Andi Jemma - Masamba 2020-06-01 08:00:00 WITA Timur 7.4 9.0 Cerah - berawan 27 23 1013
70 Frans Sales Lega - Ruteng 2020-06-01 08:00:00 WITA Barat Laut 5.6 >=10 Cerah - berawan 20 17 1012
71 Kasiguncu - Poso 2020-06-01 08:00:00 WITA Tenang 8.0 Cerah - berawan 26 23 1012
72 Sangia Nibandera - Kolaka 2020-06-01 08:00:00 WITA Tenang >=10 Cerah - berawan 28 24 1012
73 Tardamu - Sabu 2020-06-01 08:00:00 WITA Tenggara 14.8 >=10 Cerah 28 23 1014
74 Fransiskus Xaverius Seda - Maumere 2020-06-01 08:00:00 WITA Barat Daya 16.7 >=10 Cerah - berawan 27 23 1015
75 Beto Ambari - Bau Bau 2020-06-01 08:00:00 WITA Timur 7.4 9.0 Berawan 26 24 1015
76 Djalaluddin - Gorontalo 2020-06-01 08:00:00 WITA Tenggara 7.4 >=10 Berawan 27 25 1011
77 Gewayantana - Larantuka 2020-06-01 08:00:00 WITA Selatan 11.1 >=10 Cerah - berawan 29 22 1013
78 David Constantijn Saudale - Rote 2020-06-01 08:00:00 WITA Tenggara 11.1 >=10 Cerah - berawan 26 23 1020
79 El Tari - Kupang 2020-06-01 08:00:00 WITA Timur 14.8 >=10 Cerah - berawan 28 23 1015
80 Mali - Alor 2020-06-01 08:00:00 WITA Timur 7.4 >=10 Cerah - berawan 28 24 1014
81 Sam Ratulangi - Manado 2020-06-01 08:00:00 WITA Barat Laut 7.4 >=10 Cerah - berawan 29 25 1012
82 Naha - Tahuna 2020-06-01 07:00:00 WITA Tenang 8.0 Berawan 28 26 1011
83 Emalamo - Sanana 2020-06-01 09:00:00 WIT Selatan 7.4 8.0 Berawan 27 25 1013
84 Sultan Babullah - Ternate 2020-06-01 09:00:00 WIT Tenggara 13.0 >=10 Berawan 29 26 1013
85 Gamar Malamo - Galela 2020-06-01 09:00:00 WIT Tenang >=10 Cerah - berawan 29 26 1011
86 Pattimura - Ambon 2020-06-01 09:00:00 WIT Timur Laut 5.6 >=10 Berawan 28 26 1013
87 Pitu - Morotai 2020-06-01 09:00:00 WIT Tenggara 9.3 >=10 Cerah - berawan 29 25 1012
88 Amahai 2020-06-01 09:00:00 WIT Tenang >=10 Berawan 28 27 1013
89 Bandaneira - Banda 2020-06-01 08:00:00 WIT Timur 18.5 8.0 Berawan 27 24 1012
90 Domine Eduard Osok - Sorong 2020-06-01 09:00:00 WIT Tenggara 7.4 8.0 Berawan 27 24 1012
91 Mathilda Batlayeri - Saumlaki 2020-06-01 09:00:00 WIT Timur 16.7 >=10 Berawan 29 25 1014
92 Torea - Fak Fak 2020-06-01 08:00:00 WIT Tenang 8.0 Cerah - berawan 26 24 1014
93 Dumatubun - Langgur 2020-06-01 09:00:00 WIT Tenggara 14.8 8.0 Berawan 27 25 1014
94 Utarom - Kaimana 2020-06-01 09:00:00 WIT Tenggara 7.4 8.0 Berawan 28 25 1013
95 Rendani - Manokwari 2020-06-01 09:00:00 WIT Tenggara 5.6 >=10 Cerah - berawan 29 24 1012
96 Douw Aturure - Nabire 2020-06-01 09:00:00 WIT Barat Laut 5.6 9.0 Berawan 28 25 1012
97 Frans Kaisiepo - Biak 2020-06-01 09:00:00 WIT Timur 11.1 >=10 Berawan 29 25 1012
98 Enarotali 2020-06-01 09:00:00 WIT Barat Laut 3.7 7.0 Berawan 19 16 1013
99 Mozes Kilangin - Timika 2020-06-01 09:00:00 WIT Tenang >=10 Berawan 26 26 1014
100 Mararena / Orai - Sarmi 2020-06-01 09:00:00 WIT Tenggara 7.4 8.0 Cerah - berawan 28 25 1013
101 Wamena 2020-06-01 09:00:00 WIT Utara 1.9 >=10 Berawan 20 16 1024
102 Tanah Merah 2020-06-01 09:00:00 WIT Tenggara 9.3 0.8 Hujan ringan 26 24 1014
103 Mopah - Merauke 2020-06-01 09:00:00 WIT Tenggara 9.3 >=10 Berawan 29 24 1014
104 Sentani - Jayapura 2020-06-01 09:00:00 WIT Timur 5.6 >=10 Berawan 28 23 1012

Satellite Images

Wave Height Forecast

Wind Forecast

Forest Fires